createdAt,value
2019-04-29T00:00:23.631Z,3.2
2019-04-29T00:05:16.951Z,1.3
2019-04-29T00:10:25.133Z,3.3
2019-04-29T00:15:22.643Z,3.2
2019-04-29T00:20:27.975Z,3.2
2019-04-29T00:25:16.984Z,2.8
2019-04-29T00:30:24.112Z,2.5
2019-04-29T00:35:17.135Z,0.6
2019-04-29T00:40:17.463Z,2.2
2019-04-29T00:45:20.990Z,2.7
2019-04-29T00:50:22.675Z,2.1
2019-04-29T00:55:27.980Z,2.8
2019-04-29T01:00:17.098Z,3.1
2019-04-29T01:05:27.240Z,3
2019-04-29T01:10:17.560Z,1.7
2019-04-29T01:15:18.561Z,1.7
2019-04-29T01:20:23.162Z,2.1
2019-04-29T01:25:18.142Z,1.6
2019-04-29T01:30:17.558Z,0.8
2019-04-29T01:35:28.550Z,0.8
2019-04-29T01:40:18.945Z,1.4
2019-04-29T01:45:17.080Z,1.5
2019-04-29T01:50:35.070Z,1.4
2019-04-29T01:55:17.391Z,0.8
2019-04-29T02:00:22.324Z,2.2
2019-04-29T02:05:18.611Z,2.5
2019-04-29T02:10:25.631Z,1.7
2019-04-29T02:15:22.183Z,1.1
2019-04-29T02:20:20.113Z,2.6
2019-04-29T02:25:28.179Z,2
2019-04-29T02:30:17.116Z,8.4
2019-04-29T02:35:32.658Z,9.1
2019-04-29T02:40:17.729Z,2.8
2019-04-29T02:45:18.004Z,2.9
2019-04-29T02:50:23.640Z,8.8
2019-04-29T02:55:18.540Z,8.5
2019-04-29T03:00:22.589Z,9.7
2019-04-29T03:05:18.168Z,3.1
2019-04-29T03:10:17.480Z,9.2
2019-04-29T03:15:17.592Z,8.4
2019-04-29T03:20:17.279Z,2.7
2019-04-29T03:25:17.273Z,7.7
2019-04-29T03:30:17.695Z,7.8
2019-04-29T03:35:23.038Z,8.2
2019-04-29T03:40:18.780Z,8.2
2019-04-29T03:45:37.821Z,7.4
2019-04-29T03:50:23.088Z,8.5
2019-04-29T03:55:38.749Z,4
2019-04-29T04:00:17.263Z,8.5
2019-04-29T04:05:22.214Z,9
2019-04-29T04:10:17.328Z,9
2019-04-29T04:15:27.485Z,9.9
2019-04-29T04:20:17.680Z,10.4
2019-04-29T04:25:17.691Z,12
2019-04-29T04:30:23.808Z,11.3
2019-04-29T04:35:32.828Z,10.9
2019-04-29T04:40:27.749Z,11.8
2019-04-29T04:45:22.808Z,4.1
2019-04-29T04:50:21.906Z,12.6
2019-04-29T04:55:19.930Z,5.4
2019-04-29T05:00:22.439Z,13.4
2019-04-29T05:05:22.402Z,5.1
2019-04-29T05:10:17.549Z,14.7
2019-04-29T05:15:17.700Z,15.4
2019-04-29T05:20:17.179Z,3.1
2019-04-29T05:25:24.260Z,15.9
2019-04-29T05:30:27.309Z,15.8
2019-04-29T05:35:26.394Z,3.3
2019-04-29T05:40:18.584Z,16.7
2019-04-29T05:45:25.826Z,4.5
2019-04-29T05:50:19.064Z,16.3
2019-04-29T05:55:24.172Z,18.9
2019-04-29T06:00:23.212Z,4.2
2019-04-29T06:05:17.146Z,20
2019-04-29T06:10:22.868Z,20.3
2019-04-29T06:15:34.008Z,18.5
2019-04-29T06:20:26.112Z,20.1
2019-04-29T06:25:22.447Z,4.7
2019-04-29T06:30:18.745Z,19.8
2019-04-29T06:35:19.538Z,19.8
2019-04-29T06:40:30.467Z,20.1
2019-04-29T06:45:18.183Z,18.7
2019-04-29T06:50:17.108Z,4.9
2019-04-29T06:55:27.076Z,18
2019-04-29T07:00:25.729Z,19
2019-04-29T07:05:17.819Z,3.7
2019-04-29T07:10:44.044Z,17.8
2019-04-29T07:15:20.110Z,17.6
2019-04-29T07:20:17.729Z,16.8
2019-04-29T07:25:18.093Z,16.2
2019-04-29T07:30:32.551Z,15.9
2019-04-29T07:35:18.812Z,16.3
2019-04-29T07:40:18.305Z,15.5
2019-04-29T07:45:17.895Z,15.2
2019-04-29T07:50:22.261Z,3.3
2019-04-29T07:55:30.685Z,3.6
2019-04-29T08:00:23.634Z,12.7
2019-04-29T08:05:18.224Z,2
2019-04-29T08:10:28.438Z,11.8
2019-04-29T08:15:22.715Z,10.2
2019-04-29T08:20:21.976Z,9.9
2019-04-29T08:25:16.935Z,10
2019-04-29T08:30:18.665Z,10.2
2019-04-29T08:35:17.676Z,1.8
2019-04-29T08:40:22.762Z,9.1
2019-04-29T08:45:17.924Z,8.3
2019-04-29T08:50:22.135Z,8.8
2019-04-29T08:55:20.324Z,1.5
2019-04-29T09:00:17.422Z,8.1
2019-04-29T09:05:22.495Z,8.5
2019-04-29T09:10:20.842Z,8.2
2019-04-29T09:15:29.246Z,7.7
2019-04-29T09:20:28.406Z,2.3
2019-04-29T09:25:37.206Z,7.1
2019-04-29T09:30:27.459Z,7
2019-04-29T09:35:53.398Z,7
2019-04-29T09:40:17.666Z,2
2019-04-29T09:45:24.744Z,8.6
2019-04-29T09:50:22.112Z,9.8
2019-04-29T09:55:18.204Z,9.6
2019-04-29T10:00:17.333Z,1
2019-04-29T10:05:27.453Z,9.3
2019-04-29T10:10:17.611Z,4.7
2019-04-29T10:15:18.686Z,11.3
2019-04-29T10:20:17.871Z,1.3
2019-04-29T10:25:17.782Z,10.3
2019-04-29T10:30:19.427Z,10.1
2019-04-29T10:35:18.445Z,10.6
2019-04-29T10:40:17.585Z,11.2
2019-04-29T10:45:32.793Z,12.4
2019-04-29T10:50:30.316Z,11.8
2019-04-29T10:55:25.460Z,12.4
2019-04-29T11:00:23.373Z,12.3
2019-04-29T11:05:19.871Z,12.9
2019-04-29T11:10:26.385Z,12.4
2019-04-29T11:15:17.523Z,12.5
2019-04-29T11:20:22.103Z,5.2
2019-04-29T11:25:23.233Z,13.8
2019-04-29T11:30:17.353Z,12.7
2019-04-29T11:35:28.371Z,14.2
2019-04-29T11:40:44.160Z,3.7
2019-04-29T11:45:17.652Z,13.4
2019-04-29T11:50:17.616Z,14.2
2019-04-29T11:55:22.760Z,4.5
2019-04-29T12:00:17.743Z,14.1
2019-04-29T12:05:17.872Z,5.1
2019-04-29T12:10:27.015Z,14.3
2019-04-29T12:15:17.282Z,15.1
2019-04-29T12:20:20.794Z,5.2
2019-04-29T12:25:17.709Z,5.3
2019-04-29T12:30:17.870Z,4.1
2019-04-29T12:35:23.393Z,5.9
2019-04-29T12:40:18.370Z,4.8
2019-04-29T12:45:43.567Z,4.3
2019-04-29T12:51:11.500Z,4.1
2019-04-29T12:55:36.827Z,5.7
2019-04-29T13:00:27.964Z,6.5
2019-04-29T13:05:27.169Z,4.3
2019-04-29T13:10:19.530Z,5.4
2019-04-29T13:15:27.740Z,6
2019-04-29T13:20:22.106Z,4.3
2019-04-29T13:25:26.654Z,2.8
2019-04-29T13:30:19.324Z,4.4
2019-04-29T13:35:17.610Z,6.1
2019-04-29T13:40:17.769Z,2.9
2019-04-29T13:45:24.771Z,2.4
2019-04-29T13:55:46.447Z,3.2
2019-04-29T14:00:24.450Z,3.1
2019-04-29T14:05:16.998Z,1.5
2019-04-29T14:10:17.832Z,2.8
2019-04-29T14:15:17.750Z,2
2019-04-29T14:20:17.767Z,1.3
2019-04-29T14:25:17.638Z,1.7
2019-04-29T14:30:21.265Z,4.5
2019-04-29T14:35:18.872Z,7.3
2019-04-29T14:40:17.054Z,14.2
2019-04-29T14:45:16.967Z,3.1
2019-04-29T14:50:20.776Z,3.5
2019-04-29T14:55:26.927Z,5.9
2019-04-29T15:00:20.228Z,6
2019-04-29T15:05:17.256Z,6.6
2019-04-29T15:10:17.389Z,4.7
2019-04-29T15:15:17.419Z,4.1
2019-04-29T15:20:17.658Z,3.1
2019-04-29T15:25:22.528Z,4.2
2019-04-29T15:30:17.490Z,2.5
2019-04-29T15:35:24.081Z,3.1
2019-04-29T15:40:25.981Z,3.9
2019-04-29T15:45:17.538Z,2.6
2019-04-29T15:52:20.832Z,2.6
2019-04-29T15:55:17.069Z,1.4
2019-04-29T16:00:23.697Z,3.6
2019-04-29T16:05:16.817Z,2.6
2019-04-29T16:10:21.874Z,2.4
2019-04-29T16:15:16.830Z,3.6
2019-04-29T16:20:16.936Z,1.4
2019-04-29T16:25:16.977Z,3.1
2019-04-29T16:30:19.370Z,3.1
2019-04-29T16:35:24.003Z,2.5
2019-04-29T16:40:17.326Z,1.8
2019-04-29T16:45:17.306Z,2.4
2019-04-29T16:50:17.205Z,2.9
2019-04-29T16:55:17.076Z,1.1
2019-04-29T17:00:17.146Z,2.3
2019-04-29T17:05:17.037Z,1.6
2019-04-29T17:10:17.059Z,2
2019-04-29T17:15:26.207Z,2.7
2019-04-29T17:20:17.485Z,1.9
2019-04-29T17:25:17.594Z,1.4
2019-04-29T17:30:17.486Z,4.1
2019-04-29T17:35:22.255Z,1.3
2019-04-29T17:40:19.363Z,2.4
2019-04-29T17:45:30.898Z,2.3
2019-04-29T17:50:30.827Z,0.8
2019-04-29T17:55:16.836Z,2.3
2019-04-29T18:00:17.739Z,1.3
2019-04-29T18:05:17.634Z,0.9
2019-04-29T18:10:29.001Z,0.2
2019-04-29T18:15:20.374Z,1
2019-04-29T18:20:30.638Z,4.4
2019-04-29T18:25:17.644Z,4.1
2019-04-29T18:30:35.357Z,3.2
2019-04-29T18:35:17.364Z,3.6
2019-04-29T18:40:17.366Z,3.4
2019-04-29T18:45:17.264Z,3.4
2019-04-29T18:50:17.165Z,2.9
2019-04-29T18:55:17.053Z,1.5
2019-04-29T19:00:22.016Z,3.3
2019-04-29T19:05:17.576Z,0.9
2019-04-29T19:10:19.056Z,3
2019-04-29T19:15:18.212Z,3.3
2019-04-29T19:20:18.953Z,3
2019-04-29T19:25:16.825Z,0.5
2019-04-29T19:30:26.251Z,3.2
2019-04-29T19:35:17.302Z,1.2
2019-04-29T19:40:17.316Z,2.9
2019-04-29T19:45:17.723Z,0.8
2019-04-29T19:50:19.958Z,2.9
2019-04-29T19:55:16.831Z,1.2
2019-04-29T20:00:18.753Z,3
2019-04-29T20:05:17.844Z,2.6
2019-04-29T20:10:18.860Z,3.1
2019-04-29T20:15:18.483Z,0.8
2019-04-29T20:20:16.918Z,2.9
2019-04-29T20:25:30.182Z,0.7
2019-04-29T20:30:21.460Z,3
2019-04-29T20:35:18.951Z,1.2
2019-04-29T20:40:17.399Z,3.6
2019-04-29T20:45:27.368Z,3.1
2019-04-29T20:50:17.898Z,0.5
2019-04-29T20:55:17.049Z,3.1
2019-04-29T21:00:25.125Z,2.8
2019-04-29T21:05:26.827Z,0.8
2019-04-29T21:10:17.412Z,2.7
2019-04-29T21:15:17.282Z,0.5
2019-04-29T21:20:17.433Z,2.7
2019-04-29T21:25:17.472Z,1.5
2019-04-29T21:30:17.381Z,3
2019-04-29T21:35:18.883Z,1.9
2019-04-29T21:40:19.102Z,2.8
2019-04-29T21:45:17.761Z,0.6
2019-04-29T21:50:17.711Z,2.9
2019-04-29T21:55:25.688Z,0.5
2019-04-29T22:00:25.748Z,2.9
2019-04-29T22:05:18.829Z,1.1
2019-04-29T22:10:25.024Z,2.5
2019-04-29T22:15:32.961Z,1.3
2019-04-29T22:20:17.410Z,3.1
2019-04-29T22:25:17.282Z,0.4
2019-04-29T22:30:18.891Z,3.1
2019-04-29T22:35:17.773Z,1.9
2019-04-29T22:40:17.710Z,2.8
2019-04-29T22:45:17.578Z,1.8
2019-04-29T22:50:17.481Z,3.2
2019-04-29T22:55:17.381Z,3.3
2019-04-29T23:00:17.270Z,0.9
2019-04-29T23:05:17.190Z,2.7
2019-04-29T23:10:24.526Z,3.1
2019-04-29T23:15:23.716Z,3
2019-04-29T23:20:25.295Z,1
2019-04-29T23:25:17.428Z,3.2
2019-04-29T23:30:19.274Z,0.5
2019-04-29T23:35:17.259Z,3.6
2019-04-29T23:40:17.260Z,1.1
2019-04-29T23:45:22.399Z,3.6
2019-04-29T23:50:20.201Z,3.6
2019-04-29T23:55:27.794Z,3.8
